Sonic Adventure (DX): Time Rankings

Records: Times | Rings | Scores | Races | Bosses | Freestyle
Leaders: Times | Rings | Scores | Races | Bosses | Freestyle | Overall
Rank Player Percent Points Date
1 Gamepro011 99.6% 17 02-06-17
2 Sonicspeedruner 98.8% 64 02-06-17
3 Dashjump 95.3% 255 02-06-17
4 Jawzun 95.3% 258 02-06-17
5 DarkPolarNight 93.1% 380 02-06-17
6 drminus 92.2% 425 02-06-17
7 F-Man 92.1% 434 02-06-17
8 THC98 91.8% 451 02-06-17
9 ike6252 89.7% 566 02-06-17
10 Avento128bits 89.3% 588 02-06-17
11 francisco 89.1% 601 02-06-17
12 DarkspinesSonic 88.5% 634 02-06-17
13 Marth 88.3% 644 02-06-17
14 ethmar 88.2% 649 02-06-17
15 frankoredstrato 87.1% 707 02-06-17
16 chainchumper 84.2% 869 02-06-17
17 Paragod 84.1% 873 02-06-17
18 HyperSonic7701 83.9% 887 02-06-17
19 TheRealShadnic 83.5% 906 02-06-17
20 xXMegaManXx 80.9% 1051 02-06-17
21 InferSaime 80.8% 1056 02-06-17
22 Stefan 79.3% 1141 02-06-17
23 Redd 78.9% 1164 02-06-17
24 Coolfansonic 78.8% 1168 02-06-17
25 PfoSonic 78.7% 1171 02-06-17
26 bertin 76.9% 1273 02-06-17
27 yoshifan 76.4% 1297 02-06-17
28 Dave Cramer 74.7% 1393 02-06-17
29 RPGnutter 74.4% 1410 02-06-17
30 sonicam 72.8% 1497 02-06-17
31 Cybrax 72.7% 1505 02-06-17
32 Ring Rush 70.0% 1655 02-06-17
33 mike89 69.2% 1699 02-06-17
34 NintenDan 68.9% 1711 02-06-17
35 a_moustache 68.0% 1761 02-06-17
36 SkyLights 65.3% 1909 02-06-17
37 Nimrod 64.4% 1963 02-06-17
38 Combo 63.9% 1987 02-06-17
39 SADXTryHard 62.0% 2091 02-06-17
40 P1 Pause 61.1% 2145 02-06-17
41 Groudon199 59.2% 2247 02-06-17
42 Game_Complete 59.1% 2256 02-06-17
43 AxlThunder 58.6% 2279 02-06-17
44 Shadow Jacky 58.5% 2287 02-06-17
45 VMU Player Banned 57.5% 2340 02-06-17
46 Thorn 57.3% 2355 02-06-17
47 SB737 56.2% 2413 02-06-17
48 The Knuckles Chao 56.2% 2414 02-06-17
49 SadisticMystic 55.8% 2437 02-06-17
50 Chao_Fan 55.7% 2440 02-06-17
51 Parax 55.6% 2446 02-06-17
52 Mastakirby 55.3% 2465 02-06-17
53 LittleBigness 54.9% 2485 02-06-17
54 KinkyCadence 54.8% 2489 02-06-17
55 mauserman 54.7% 2494 02-06-17
55 OmegaDJ 54.7% 2494 02-06-17
57 Psyknux 54.4% 2514 02-06-17
58 Auriman1 54.1% 2531 02-06-17
59 magnum12 53.9% 2540 02-06-17
60 Turbos 53.5% 2560 02-06-17
61 GerbilSoft 53.1% 2587 02-06-17
62 GreatStar 52.8% 2603 02-06-17
63 Webber3000 52.3% 2627 02-06-17
64 Hipertails12 51.4% 2677 02-06-17
65 James_Bertolli 49.1% 2803 02-06-17
66 Cream147 48.8% 2823 02-06-17
67 welldooder64 48.0% 2864 02-06-17
68 Skylace 48.0% 2868 02-06-17
69 Quartz 47.5% 2891 02-06-17
70 Omega Rafael Santos 47.5% 2893 02-06-17
71 Psymar 47.5% 2896 02-06-17
72 Diamond 47.4% 2900 02-06-17
73 SonicWinDX 46.9% 2926 02-06-17
74 teamblackarms 46.3% 2959 02-06-17
75 Andrea Ritsu 45.7% 2995 02-06-17
76 buddychaos0415 45.4% 3007 02-06-17
77 SilverSonic 44.8% 3043 02-06-17
78 SilvertheAlmighty 44.2% 3078 02-06-17
79 itsPersonnal 44.0% 3089 02-06-17
80 WeegeeZV 43.9% 3090 02-06-17
81 metanightmare22 43.5% 3114 02-06-17
82 chaos shadow 41.6% 3221 02-06-17
83 lordmetalsonic 41.3% 3235 02-06-17
84 Arch 40.9% 3256 02-06-17
85 Termon 40.1% 3304 02-06-17
86 videogamemaster777 39.9% 3311 02-06-17
87 supersonicfan 39.7% 3324 02-06-17
88 Drakodan 39.1% 3355 02-06-17
89 Kanimayo_Jp 38.9% 3368 02-06-17
90 LilZero 38.8% 3375 02-06-17
91 paulie9990 38.6% 3382 02-06-17
92 FuzZerd 38.5% 3390 02-06-17
93 supersonic465 38.4% 3397 02-06-17
94 eggFL 37.8% 3427 02-06-17
95 Don 37.2% 3462 02-06-17
96 danieldude 37.0% 3475 02-06-17
97 Siavash Tazari 36.3% 3514 02-06-17
98 Fr3nZy 35.9% 3535 02-06-17
99 f0rever_zer0 35.3% 3566 02-06-17
100 Cod4Scopes 35.2% 3571 02-06-17
101 Cyan Ryan 34.8% 3597 02-06-17
102 LinksDarkArrows 34.4% 3619 02-06-17
103 Therio 34.2% 3628 02-06-17
104 Austinf 33.9% 3644 02-06-17
105 elecmouse101 33.3% 3676 02-06-17
106 Staf 33.2% 3684 02-06-17
107 MiStEr_ShAoLiN 32.8% 3702 02-06-17
108 Twilisailor 32.4% 3725 02-06-17
109 BrokenArthritis 32.3% 3733 02-06-17
110 videogamer1014 32.2% 3738 02-06-17
111 N 31.8% 3760 02-06-17
112 Xia 31.6% 3769 02-06-17
113 AC-Tygo 31.5% 3779 02-06-17
114 welshmoose05 31.2% 3791 02-06-17
115 OddCook 30.6% 3825 02-06-17
116 The Great Lord Mick 30.3% 3844 02-06-17
117 Mcshuggets 29.8% 3872 02-06-17
118 Aitamen 29.7% 3878 02-06-17
119 Maxinfamily 29.6% 3881 02-06-17
120 Matt_TY 29.4% 3890 02-06-17
121 joecoolgames 29.3% 3898 02-06-17
122 dabestgamer 29.2% 3903 02-06-17
123 SuperBlitzCraig 28.9% 3921 02-06-17
124 imazor017 28.7% 3931 02-06-17
125 Shadowthegreat 27.8% 3981 02-06-17
126 SuperSonic101 27.7% 3984 02-06-17
127 superjupi 27.7% 3987 02-06-17
128 Rolken 27.3% 4008 02-06-17
129 thewaytodawnnn 27.0% 4025 02-06-17
130 Hunters13 27.0% 4026 02-06-17
131 sonamyfan666 26.8% 4036 02-06-17
132 iarebored 26.6% 4049 02-06-17
133 koinu93 26.5% 4050 02-06-17
134 Spinballwizard 26.4% 4056 02-06-17
135 SaviourDC 26.3% 4062 02-06-17
136 SonicKnuckles 26.3% 4065 02-06-17
137 EngiNerd 25.3% 4116 02-06-17
138 adf 25.2% 4122 02-06-17
139 Megaman EXE565 24.6% 4159 02-06-17
140 The T 24.1% 4182 02-06-17
141 Sonic Singularity 23.6% 4213 02-06-17
142 Platformer 23.3% 4227 02-06-17
143 Pokemonmaster888 23.2% 4232 02-06-17
144 SeaWolf 23.2% 4235 02-06-17
145 timpkmn89 22.9% 4251 02-06-17
146 Swift Hobo 22.5% 4272 02-06-17
147 Sondow 22.2% 4291 02-06-17
148 Rickyman48 22.0% 4301 02-06-17
149 KitsuneYamaro 21.6% 4324 02-06-17
150 FoxBoy 21.4% 4332 02-06-17
151 TFEC Headshot 21.0% 4358 02-06-17
152 Jerzia 20.8% 4366 02-06-17
153 Kogen Player Banned 20.8% 4369 02-06-17
154 SonataSpinDash 20.5% 4383 02-06-17
155 Starlight Sable 20.0% 4411 02-06-17
156 IsisDazs 19.5% 4437 02-06-17
157 HyperSonic64 19.5% 4439 02-06-17
158 Powerjohn25 19.4% 4445 02-06-17
159 crazy1993 19.0% 4465 02-06-17
160 andres430 18.9% 4474 02-06-17
161 SonicU260 17.9% 4526 02-06-17
162 SonicAD 17.6% 4546 02-06-17
163 MPit08 17.5% 4550 02-06-17
164 sonicd5 17.2% 4568 02-06-17
165 iSonicKid2K 16.8% 4586 02-06-17
166 dShadow 16.8% 4589 02-06-17
167 Cutiefox 16.2% 4622 02-06-17
168 BigAL49 16.2% 4623 02-06-17
169 Chawkk 16.1% 4628 02-06-17
170 Miles9999 16.0% 4629 02-06-17
171 Monkeh 15.9% 4638 02-06-17
172 DaDude 15.4% 4665 02-06-17
173 Drflash55 15.2% 4676 02-06-17
174 Badlex727 14.9% 4693 02-06-17
175 Bass 14.8% 4696 02-06-17
176 Cruizer 14.5% 4715 02-06-17
177 Yish 14.5% 4716 02-06-17
178 Destroyer121121 14.5% 4717 02-06-17
178 neaolas 14.5% 4717 02-06-17
180 zapp 14.3% 4723 02-06-17
181 UninspiredUsername 14.2% 4731 02-06-17
182 superiorsonic 14.2% 4733 02-06-17
183 gamefreak1292 13.9% 4750 02-06-17
184 Cooljay 13.5% 4771 02-06-17
185 Chaos_Overlord 13.0% 4798 02-06-17
186 Valfore 12.4% 4831 02-06-17
187 GarnetPrincess 12.2% 4840 02-06-17
188 soniccoloursunleashed 11.9% 4855 02-06-17
189 ShinigamiMachine 11.8% 4861 02-06-17
190 Sonicsuperstar1 11.4% 4884 02-06-17
191 booo95 11.0% 4906 02-06-17
192 FocusSight64 10.9% 4912 02-06-17
192 SirTobbii 10.9% 4912 02-06-17
194 Werey 10.9% 4914 02-06-17
195 Mo Player Banned 10.7% 4923 02-06-17
196 sonicspeed 10.6% 4932 02-06-17
197 Venick409 9.7% 4980 02-06-17
198 Sithwarrior26 9.6% 4983 02-06-17
199 nman36 9.6% 4984 02-06-17
200 ingx24 9.1% 5010 02-06-17
201 CyberShadow 9.0% 5015 02-06-17
202 dekki1234 8.8% 5027 02-06-17
203 Fozer 8.8% 5030 02-06-17
204 Colomb_30 8.6% 5041 02-06-17
205 Egor305 8.5% 5046 02-06-17
206 Regano1000 8.4% 5052 02-06-17
207 1stKirbyever 8.1% 5069 02-06-17
208 TimTH 7.9% 5077 02-06-17
209 nuckrieg 7.8% 5082 02-06-17
210 Brian_pso 7.7% 5088 02-06-17
211 douglas 7.6% 5094 02-06-17
212 Zip 7.5% 5103 02-06-17
213 Th4tN1nj4Turtl3 7.4% 5105 02-06-17
214 TakaRikka 7.4% 5107 02-06-17
215 Mariosonic15 7.1% 5123 02-06-17
216 wheatrich 7.0% 5126 02-06-17
217 ieatatsonic 6.7% 5146 02-06-17
218 HermitHelmet 6.7% 5147 02-06-17
218 MStitomix 6.7% 5147 02-06-17
218 niscool 6.7% 5147 02-06-17
221 Got4n 6.4% 5163 02-06-17
222 Cort_pso 6.3% 5168 02-06-17
223 Triseena 6.3% 5169 02-06-17
224 Jose_15 6.0% 5182 02-06-17
225 Artie 5.9% 5188 02-06-17
226 BlankTH 5.9% 5190 02-06-17
227 SuperSonicfan9595 5.8% 5193 02-06-17
228 Ace747 5.6% 5207 02-06-17
229 HHNNBBHHN 5.5% 5212 02-06-17
229 Richied 5.5% 5212 02-06-17
231 Paixii 5.2% 5225 02-06-17
232 Aiko 5.2% 5229 02-06-17
233 BallzeH 5.0% 5240 02-06-17
233 slade23 5.0% 5240 02-06-17
235 FSSRandomvids 4.9% 5246 02-06-17
235 Mankster101 4.9% 5246 02-06-17
237 ArcticDragon 4.8% 5247 02-06-17
238 BecauseWarAnvil 4.8% 5249 02-06-17
239 PsyBorg 4.8% 5250 02-06-17
240 Jamixesa 4.8% 5252 02-06-17
241 Nickson98 4.7% 5257 02-06-17
242 Crydio 4.6% 5261 02-06-17
243 TheUltraBlur 4.4% 5269 02-06-17
244 ReuelBrony 4.4% 5274 02-06-17
245 MarewBFN 4.3% 5279 02-06-17
246 stanski 4.2% 5282 02-06-17
247 tal39h 4.2% 5283 02-06-17
248 p0ker 4.0% 5294 02-06-17
249 ALundstrom10 4.0% 5295 02-06-17
250 knuckles_sonic8 4.0% 5296 02-06-17
251 Blue Infamy 3.9% 5299 02-06-17
252 ErrortheCucco 3.7% 5310 02-06-17
253 Rikum22 3.6% 5313 02-06-17
254 sonic1001 3.5% 5321 02-06-17
254 TheChaosEmeraIds 3.5% 5321 02-06-17
256 AJSIV 3.4% 5326 02-06-17
257 syco1098 3.4% 5328 02-06-17
258 Sonic the Hedgehod16 3.3% 5330 02-06-17
259 Calfd 3.2% 5339 02-06-17
259 sonicfan9 3.2% 5339 02-06-17
261 MK 2.9% 5352 02-06-17
261 themachoman202 2.9% 5352 02-06-17
263 Fivavoa 2.8% 5362 02-06-17
263 Mr. Jones 2.8% 5362 02-06-17
265 BlackArmsShadow 2.7% 5364 02-06-17
265 djmat 2.7% 5364 02-06-17
267 arcfx1985 2.7% 5365 02-06-17
268 ptorflaxendrosis 2.7% 5367 02-06-17
269 Sonique Hedgehog 2.6% 5369 02-06-17
270 FlandreScarlet9999vr 2.6% 5373 02-06-17
271 Zeldocto 2.5% 5375 02-06-17
272 KaM Mark MaK 2.5% 5379 02-06-17
273 BeeAwwb 2.4% 5380 02-06-17
274 ShadouZaHejjihoggu 2.3% 5387 02-06-17
275 darkstarblaze 2.2% 5392 02-06-17
276 Sonic The Star 2.2% 5394 02-06-17
277 darkersupershadic 2.2% 5395 02-06-17
278 SpiritDragon1995 2.1% 5396 02-06-17
279 Sarger001 2.1% 5399 02-06-17
280 Grady219 2.1% 5401 02-06-17
280 sonic29887 2.1% 5401 02-06-17
282 shadowblast63 Player Banned 2.0% 5406 02-06-17
283 Jawaah 1.9% 5408 02-06-17
284 Antek 1.9% 5411 02-06-17
285 Klaus 1.8% 5413 02-06-17
286 BioShadow 1.8% 5417 02-06-17
287 SkyBon 1.5% 5434 02-06-17
288 Shanekilz 1.4% 5435 02-06-17
289 isaihtb11 1.4% 5439 02-06-17
290 OhNoes! 1.3% 5441 02-06-17
291 zaktu40 1.3% 5442 02-06-17
292 gaara1234 1.3% 5445 02-06-17
293 S-MS32X-S 1.2% 5447 02-06-17
294 MastaToken 1.1% 5452 02-06-17
295 Mister_Slick 1.1% 5456 02-06-17
296 Sonic06Fan 1.0% 5459 02-06-17
297 Rush Hero 1.0% 5461 02-06-17
298 SonicMega167 0.9% 5466 02-06-17
299 SilverK 0.9% 5467 02-06-17
300 oTaiIilLsS 0.8% 5468 02-06-17
301 gamed00d 0.8% 5469 02-06-17
302 Burningskull123 0.5% 5485 02-06-17
303 Heroes_Hater 0.5% 5487 02-06-17
304 Sonicontherun 0.3% 5496 02-06-17
305 antiwwe 0.2% 5502 02-06-17
306 Iwannabelink 0.2% 5504 02-06-17
307 Genuine Hedgehog 0.1% 5506 02-06-17
308 dragondragon18 0.1% 5510 02-06-17
309 SonicK100 0.1% 5511 02-06-17
310 Tyrouble 0.0% 5516 02-06-17
311 LancexExWx 0.0% 5517 02-06-17
311 neji_hyuuga 0.0% 5517 02-06-17
311 Over 0.0% 5517 02-06-17
311 sdj6707 Player Banned 0.0% 5517 02-06-17
311 Tran Sonic Fan Player Banned 0.0% 5517 02-06-17

This page is using the New Data Table System. [FUTURE]

Game ID: 3 | Category ID: 1
Hits: 8,434 | Hits This Month: 16 | DB Calls: 24 | Mem Usage: 5.46 MB | Time: 0.13s | Printable

The Sonic Center v3.9 Hax in Progress
Copyright 2003-2011 by The Sonic Center Team.